Duluth, Minnesota
Current Conditions -  °F | °C
As of 12:33 PM on Sunday 23 Nov 2014 (Local Time) from KDLH Reporting Station
Haze Haze  
Wind Chill: 35°   Ceiling: 500
Heat Index: 39°   Visibility: 2.5mi
Dew Point: 36°   Wind: 6mph
Humidity: 89%   Direction: 270°W
Pressure: 29.38"   Gusts: NA
Location:  46.79°N, 92.09°W
Report Text: KDLH 231833Z 27005KT 2 1/2SM BR OVC005 04/02 A2938 RMK AO2 CIG 004V008 T00390022
Loading
Personal Weather Stations






























Interactive Weather Map New forecast layout! Learn more

10-Day Weather Forecast

Advertisements
Track Severe Weather on mobile